Parrott, Georgia
Current Conditions -  °F | °C
As of 6:55 AM on Monday 22 Dec 2014 (Local Time) from KACJ Reporting Station
Drizzle Drizzle  
Wind Chill: 44°   Ceiling: 300
Heat Index: 46°   Visibility: 2.5mi
Dew Point: 46°   Wind: 6mph
Humidity: 100%   Direction: 60°ENE
Pressure: 30.03"   Gusts: NA
Location:  31.89°N, 84.51°W
Report Text: KACJ 221155Z AUTO 06005KT 2 1/2SM -DZ OVC003 08/08 A3003 RMK AO2
Loading
Personal Weather Stations






























Interactive Weather Map New forecast layout! Learn more

10-Day Weather Forecast

Advertisements
Track Severe Weather on mobile